createdAt,value
2019-01-27T00:01:03.125Z,4.33
2019-01-27T00:06:06.196Z,4.32
2019-01-27T00:11:09.062Z,4.31
2019-01-27T00:16:11.503Z,4.30
2019-01-27T00:21:14.180Z,4.29
2019-01-27T00:26:19.607Z,4.29
2019-01-27T00:31:21.917Z,4.26
2019-01-27T00:36:24.896Z,4.24
2019-01-27T00:41:27.179Z,4.24
2019-01-27T00:46:29.460Z,4.24
2019-01-27T00:51:31.894Z,4.22
2019-01-27T00:56:34.384Z,4.20
2019-01-27T01:01:36.708Z,4.20
2019-01-27T01:06:40.643Z,4.22
2019-01-27T01:11:43.159Z,4.19
2019-01-27T01:16:45.599Z,4.19
2019-01-27T01:21:48.565Z,4.20
2019-01-27T01:26:51.390Z,4.20
2019-01-27T01:31:53.651Z,4.17
2019-01-27T01:36:55.959Z,4.16
2019-01-27T01:41:58.530Z,4.17
2019-01-27T01:47:01.385Z,4.16
2019-01-27T01:52:04.651Z,4.14
2019-01-27T01:57:07.675Z,4.11
2019-01-27T02:02:10.216Z,4.05
2019-01-27T02:07:13.000Z,4.04
2019-01-27T02:12:15.606Z,4.04
2019-01-27T02:17:18.485Z,4.03
2019-01-27T02:22:21.270Z,4.04
2019-01-27T02:27:23.790Z,4.07
2019-01-27T02:32:26.536Z,4.04
2019-01-27T02:37:29.110Z,4.04
2019-01-27T02:42:31.712Z,4.04
2019-01-27T02:47:34.689Z,4.06
2019-01-27T02:52:57.473Z,4.06
2019-01-27T02:57:59.690Z,4.04
2019-01-27T03:03:03.222Z,4.01
2019-01-27T03:08:05.917Z,4.00
2019-01-27T03:13:08.263Z,4.00
2019-01-27T03:18:10.841Z,4.01
2019-01-27T03:23:13.359Z,3.98
2019-01-27T03:28:15.766Z,3.96
2019-01-27T03:33:18.847Z,3.92
2019-01-27T03:38:21.943Z,3.94
2019-01-27T03:43:24.943Z,3.92
2019-01-27T03:48:27.335Z,3.92
2019-01-27T03:53:29.858Z,3.91
2019-01-27T03:58:32.314Z,3.90
2019-01-27T04:03:34.900Z,3.90
2019-01-27T04:08:37.758Z,3.89
2019-01-27T04:13:40.286Z,3.92
2019-01-27T04:18:42.557Z,3.88
2019-01-27T04:23:44.906Z,3.85
2019-01-27T04:28:47.142Z,3.83
2019-01-27T04:33:50.117Z,3.80
2019-01-27T04:38:52.393Z,3.81
2019-01-27T04:43:56.425Z,3.78
2019-01-27T04:48:58.747Z,3.77
2019-01-27T04:54:00.977Z,3.76
2019-01-27T04:59:04.266Z,3.76
2019-01-27T05:04:29.406Z,3.72
2019-01-27T05:09:32.231Z,3.73
2019-01-27T05:14:34.916Z,3.75
2019-01-27T05:19:37.695Z,3.76
2019-01-27T05:24:40.436Z,3.78
2019-01-27T05:29:42.679Z,3.76
2019-01-27T05:34:45.520Z,3.75
2019-01-27T05:39:48.077Z,3.74
2019-01-27T05:44:51.308Z,3.72
2019-01-27T05:49:54.116Z,3.70
2019-01-27T05:54:56.623Z,3.71
2019-01-27T05:59:59.115Z,3.70
2019-01-27T06:05:01.713Z,3.69
2019-01-27T06:10:06.350Z,3.67
2019-01-27T06:15:11.058Z,3.65
2019-01-27T06:20:13.935Z,3.64
2019-01-27T06:25:16.631Z,3.66
2019-01-27T06:30:22.018Z,3.66
2019-01-27T06:35:24.592Z,3.64
2019-01-27T06:40:27.383Z,3.62
2019-01-27T06:45:30.038Z,3.65
2019-01-27T06:50:32.345Z,3.65
2019-01-27T06:55:34.627Z,3.66
2019-01-27T07:01:02.891Z,3.66
2019-01-27T07:06:10.562Z,3.69
2019-01-27T07:11:31.296Z,3.75
2019-01-27T07:16:43.788Z,3.74
2019-01-27T07:21:55.288Z,3.79
2019-01-27T07:27:06.831Z,3.82
2019-01-27T07:32:35.124Z,3.84
2019-01-27T07:37:47.961Z,3.86
2019-01-27T07:43:05.943Z,3.93
2019-01-27T07:48:18.308Z,3.95
2019-01-27T07:53:49.269Z,3.99
2019-01-27T07:59:29.510Z,4.01
2019-01-27T08:04:52.621Z,4.00
2019-01-27T08:10:11.865Z,4.02
2019-01-27T08:15:40.287Z,4.00
2019-01-27T08:20:53.415Z,3.96
2019-01-27T08:26:04.439Z,3.97
2019-01-27T08:31:29.612Z,4.00
2019-01-27T08:36:43.272Z,4.02
2019-01-27T08:42:00.522Z,4.06
2019-01-27T08:47:03.551Z,4.12
2019-01-27T08:52:06.087Z,4.18
2019-01-27T08:57:10.689Z,4.21
2019-01-27T09:02:32.733Z,4.19
2019-01-27T09:07:53.627Z,4.20
2019-01-27T09:13:11.305Z,4.25
2019-01-27T09:18:30.570Z,4.39
2019-01-27T09:23:47.006Z,4.45
2019-01-27T09:28:56.196Z,4.50
2019-01-27T09:34:17.511Z,4.54
2019-01-27T09:39:45.994Z,4.56
2019-01-27T09:45:01.113Z,4.61
2019-01-27T09:50:36.949Z,4.63
2019-01-27T09:55:55.887Z,4.69
2019-01-27T10:01:16.859Z,4.78
2019-01-27T10:06:51.534Z,4.89
2019-01-27T10:12:11.807Z,4.95
2019-01-27T10:17:37.463Z,5.02
2019-01-27T10:23:11.172Z,5.09
2019-01-27T10:28:30.568Z,5.14
2019-01-27T10:33:52.980Z,5.24
2019-01-27T10:39:15.821Z,5.39
2019-01-27T10:44:39.800Z,5.50
2019-01-27T10:50:13.605Z,5.54
2019-01-27T10:55:32.732Z,5.56
2019-01-27T11:00:51.171Z,5.57
2019-01-27T11:06:02.892Z,5.59
2019-01-27T11:11:27.958Z,5.60
2019-01-27T11:16:41.233Z,5.64
2019-01-27T11:22:09.681Z,5.62
2019-01-27T11:27:33.133Z,5.66
2019-01-27T11:33:03.740Z,5.69
2019-01-27T11:38:26.005Z,5.76
2019-01-27T11:43:47.970Z,5.72
2019-01-27T11:48:59.323Z,5.72
2019-01-27T11:54:01.587Z,5.75
2019-01-27T11:59:04.640Z,5.76
2019-01-27T12:04:06.909Z,5.79
2019-01-27T12:09:09.933Z,5.71
2019-01-27T12:14:12.784Z,5.71
2019-01-27T12:19:16.193Z,5.71
2019-01-27T12:24:18.610Z,5.70
2019-01-27T12:29:21.706Z,5.68
2019-01-27T12:34:24.453Z,5.70
2019-01-27T12:39:27.609Z,5.66
2019-01-27T12:44:30.665Z,5.64
2019-01-27T12:49:36.822Z,5.62
2019-01-27T12:55:01.360Z,5.61
2019-01-27T13:00:14.545Z,5.69
2019-01-27T13:05:18.767Z,5.77
2019-01-27T13:10:25.258Z,5.83
2019-01-27T13:15:28.582Z,5.80
2019-01-27T13:20:32.818Z,5.83
2019-01-27T13:25:35.586Z,5.97
2019-01-27T13:30:40.727Z,5.99
2019-01-27T13:35:43.918Z,6.01
2019-01-27T13:40:46.358Z,6.04
2019-01-27T13:45:49.527Z,6.05
2019-01-27T13:50:52.577Z,6.05
2019-01-27T13:55:55.438Z,6.04
2019-01-27T14:01:05.508Z,6.07
2019-01-27T14:06:09.066Z,6.08
2019-01-27T14:11:12.388Z,6.09
2019-01-27T14:16:15.250Z,6.14
2019-01-27T14:21:19.669Z,6.15
2019-01-27T14:26:22.125Z,6.21
2019-01-27T14:31:24.602Z,6.24
2019-01-27T14:36:26.871Z,6.27
2019-01-27T14:41:29.497Z,6.30
2019-01-27T14:46:32.473Z,6.32
2019-01-27T14:51:35.002Z,6.35
2019-01-27T14:56:37.349Z,6.38
2019-01-27T15:01:40.152Z,6.46
2019-01-27T15:06:42.667Z,6.44
2019-01-27T15:11:46.479Z,6.45
2019-01-27T15:16:49.329Z,6.45
2019-01-27T15:21:52.479Z,6.42
2019-01-27T15:26:54.745Z,6.35
2019-01-27T15:31:57.303Z,6.26
2019-01-27T15:37:00.240Z,6.23
2019-01-27T15:42:03.035Z,6.21
2019-01-27T15:47:05.598Z,6.19
2019-01-27T15:52:08.058Z,6.16
2019-01-27T15:57:10.681Z,6.18
2019-01-27T16:02:13.585Z,6.19
2019-01-27T16:07:16.239Z,6.16
2019-01-27T16:12:18.468Z,6.13
2019-01-27T16:17:21.102Z,6.06
2019-01-27T16:22:23.492Z,6.05
2019-01-27T16:27:25.738Z,6.03
2019-01-27T16:32:34.720Z,6.02
2019-01-27T16:37:37.813Z,6.00
2019-01-27T16:42:40.384Z,5.99
2019-01-27T16:47:43.380Z,5.98
2019-01-27T16:52:46.436Z,5.95
2019-01-27T16:57:48.914Z,5.95
2019-01-27T17:02:51.710Z,5.96
2019-01-27T17:07:54.782Z,5.94
2019-01-27T17:12:57.263Z,5.94
2019-01-27T17:17:59.879Z,5.92
2019-01-27T17:23:02.809Z,5.87
2019-01-27T17:28:05.651Z,5.87
2019-01-27T17:33:08.494Z,5.84
2019-01-27T17:38:11.533Z,5.81
2019-01-27T17:43:13.741Z,5.80
2019-01-27T17:48:16.415Z,5.79
2019-01-27T17:53:19.111Z,5.76
2019-01-27T17:59:03.028Z,5.77
2019-01-27T18:04:24.359Z,5.74
2019-01-27T18:09:35.982Z,5.74
2019-01-27T18:14:40.462Z,5.73
2019-01-27T18:19:42.717Z,5.70
2019-01-27T18:24:45.490Z,5.71
2019-01-27T18:29:48.111Z,5.71
2019-01-27T18:34:50.378Z,5.71
2019-01-27T18:39:52.952Z,5.72
2019-01-27T18:44:55.297Z,5.72
2019-01-27T18:49:57.810Z,5.71
2019-01-27T18:55:14.168Z,5.72
2019-01-27T19:00:34.976Z,5.74
2019-01-27T19:05:43.145Z,5.76
2019-01-27T19:11:07.922Z,5.81
2019-01-27T19:16:16.604Z,5.87
2019-01-27T19:21:48.785Z,5.89
2019-01-27T19:26:59.743Z,5.89
2019-01-27T19:32:15.712Z,5.91
2019-01-27T19:37:29.644Z,5.91
2019-01-27T19:42:45.210Z,5.94
2019-01-27T19:48:04.094Z,5.93
2019-01-27T19:53:25.493Z,5.94
2019-01-27T19:58:40.369Z,5.94
2019-01-27T20:03:52.554Z,5.92
2019-01-27T20:09:13.107Z,5.90
2019-01-27T20:14:26.000Z,5.89
2019-01-27T20:19:46.968Z,5.89
2019-01-27T20:25:02.207Z,5.87
2019-01-27T20:30:22.207Z,5.85
2019-01-27T20:35:49.036Z,5.83
2019-01-27T20:41:03.732Z,5.82
2019-01-27T20:46:14.108Z,5.83
2019-01-27T20:51:29.032Z,5.78
2019-01-27T20:56:52.639Z,5.74
2019-01-27T21:02:15.084Z,5.73
2019-01-27T21:07:36.251Z,5.72
2019-01-27T21:12:48.550Z,5.71
2019-01-27T21:18:04.716Z,5.72
2019-01-27T21:23:06.948Z,5.70
2019-01-27T21:28:09.462Z,5.66
2019-01-27T21:33:11.876Z,5.63
2019-01-27T21:38:14.655Z,5.62
2019-01-27T21:43:17.948Z,5.60
2019-01-27T21:48:20.420Z,5.56
2019-01-27T21:53:23.531Z,5.52
2019-01-27T21:58:26.223Z,5.53
2019-01-27T22:03:29.067Z,5.48
2019-01-27T22:08:31.520Z,5.48
2019-01-27T22:13:34.305Z,5.47
2019-01-27T22:18:36.609Z,5.44
2019-01-27T22:23:40.093Z,5.40
2019-01-27T22:28:42.303Z,5.39
2019-01-27T22:33:45.305Z,5.36
2019-01-27T22:38:47.747Z,5.32
2019-01-27T22:43:50.290Z,5.29
2019-01-27T22:48:53.190Z,5.28
2019-01-27T22:53:55.994Z,5.28
2019-01-27T22:58:58.995Z,5.25
2019-01-27T23:04:01.403Z,5.24
2019-01-27T23:09:12.697Z,5.22
2019-01-27T23:14:15.689Z,5.24
2019-01-27T23:19:18.086Z,5.24
2019-01-27T23:24:21.187Z,5.23
2019-01-27T23:29:24.278Z,5.25
2019-01-27T23:34:26.816Z,5.26
2019-01-27T23:39:29.938Z,5.24
2019-01-27T23:44:33.303Z,5.22
2019-01-27T23:49:36.199Z,5.23
2019-01-27T23:54:39.403Z,5.22
2019-01-27T23:59:41.731Z,5.22
